createdAt,value
2018-08-23T00:00:49.773Z,982.461
2018-08-23T00:02:49.865Z,982.460
2018-08-23T00:04:50.118Z,982.478
2018-08-23T00:06:50.213Z,982.476
2018-08-23T00:08:50.363Z,982.477
2018-08-23T00:10:50.574Z,982.476
2018-08-23T00:12:49.659Z,982.469
2018-08-23T00:14:49.831Z,982.466
2018-08-23T00:16:50.384Z,982.466
2018-08-23T00:18:49.852Z,982.462
2018-08-23T00:20:49.904Z,982.471
2018-08-23T00:22:49.816Z,982.448
2018-08-23T00:24:49.817Z,982.418
2018-08-23T00:26:49.895Z,982.403
2018-08-23T00:28:49.897Z,982.399
2018-08-23T00:30:49.865Z,982.382
2018-08-23T00:32:49.869Z,982.354
2018-08-23T00:34:50.134Z,982.334
2018-08-23T00:36:50.280Z,982.312
2018-08-23T00:38:50.275Z,982.301
2018-08-23T00:40:50.275Z,982.310
2018-08-23T00:42:50.260Z,982.304
2018-08-23T00:44:50.287Z,982.303
2018-08-23T00:46:50.449Z,982.307
2018-08-23T00:48:50.434Z,982.294
2018-08-23T00:50:50.441Z,982.275
2018-08-23T00:52:50.428Z,982.253
2018-08-23T00:54:50.477Z,982.248
2018-08-23T00:56:49.668Z,982.242
2018-08-23T00:58:49.811Z,982.242
2018-08-23T01:00:49.889Z,982.219
2018-08-23T01:02:49.990Z,982.215
2018-08-23T01:04:50.381Z,982.222
2018-08-23T01:06:50.533Z,982.213
2018-08-23T01:08:49.634Z,982.208
2018-08-23T01:10:49.734Z,982.227
2018-08-23T01:12:49.661Z,982.235
2018-08-23T01:14:49.768Z,982.225
2018-08-23T01:16:50.058Z,982.232
2018-08-23T01:18:50.076Z,982.221
2018-08-23T01:20:50.060Z,982.205
2018-08-23T01:22:50.038Z,982.197
2018-08-23T01:24:50.044Z,982.181
2018-08-23T01:26:50.120Z,982.171
2018-08-23T01:28:50.086Z,982.153
2018-08-23T01:30:50.128Z,982.131
2018-08-23T01:32:50.181Z,982.123
2018-08-23T01:34:50.491Z,982.128
2018-08-23T01:36:49.748Z,982.110
2018-08-23T01:38:50.139Z,982.107
2018-08-23T01:40:50.122Z,982.110
2018-08-23T01:42:50.154Z,982.104
2018-08-23T01:44:50.140Z,982.086
2018-08-23T01:46:50.273Z,982.075
2018-08-23T01:48:50.269Z,982.077
2018-08-23T01:50:50.207Z,982.060
2018-08-23T01:52:50.270Z,982.040
2018-08-23T01:54:50.262Z,982.024
2018-08-23T01:56:50.417Z,982.039
2018-08-23T01:58:50.480Z,982.048
2018-08-23T02:00:50.407Z,982.048
2018-08-23T02:02:50.372Z,982.041
2018-08-23T02:04:49.874Z,982.038
2018-08-23T02:06:49.899Z,982.013
2018-08-23T02:08:49.834Z,982.007
2018-08-23T02:10:49.901Z,981.999
2018-08-23T02:12:49.855Z,981.997
2018-08-23T02:14:49.828Z,981.985
2018-08-23T02:16:50.009Z,981.977
2018-08-23T02:18:50.037Z,981.967
2018-08-23T02:20:50.203Z,981.970
2018-08-23T02:22:50.262Z,981.962
2018-08-23T02:24:50.246Z,981.944
2018-08-23T02:26:50.566Z,981.933
2018-08-23T02:28:49.618Z,981.928
2018-08-23T02:30:49.705Z,981.922
2018-08-23T02:32:49.918Z,981.911
2018-08-23T02:34:50.220Z,981.921
2018-08-23T02:36:50.372Z,981.925
2018-08-23T02:38:50.409Z,981.917
2018-08-23T02:40:50.400Z,981.895
2018-08-23T02:42:50.392Z,981.891
2018-08-23T02:44:50.445Z,981.895
2018-08-23T02:46:49.728Z,981.890
2018-08-23T02:48:49.791Z,981.871
2018-08-23T02:50:49.756Z,981.831
2018-08-23T02:52:49.828Z,981.821
2018-08-23T02:54:49.854Z,981.804
2018-08-23T02:56:50.034Z,981.804
2018-08-23T02:58:50.035Z,981.766
2018-08-23T03:00:50.200Z,981.769
2018-08-23T03:02:50.199Z,981.767
2018-08-23T03:04:49.637Z,981.766
2018-08-23T03:06:49.864Z,981.756
2018-08-23T03:08:50.341Z,981.742
2018-08-23T03:10:50.452Z,981.741
2018-08-23T03:12:50.539Z,981.741
2018-08-23T03:14:50.445Z,981.734
2018-08-23T03:16:49.674Z,981.714
2018-08-23T03:18:50.411Z,981.710
2018-08-23T03:20:50.404Z,981.708
2018-08-23T03:22:50.356Z,981.715
2018-08-23T03:24:50.307Z,981.717
2018-08-23T03:26:50.407Z,981.709
2018-08-23T03:28:50.311Z,981.712
2018-08-23T03:30:50.279Z,981.726
2018-08-23T03:32:50.269Z,981.729
2018-08-23T03:34:50.537Z,981.742
2018-08-23T03:36:49.682Z,981.756
2018-08-23T03:38:49.696Z,981.740
2018-08-23T03:40:49.731Z,981.738
2018-08-23T03:42:49.721Z,981.738
2018-08-23T03:44:49.650Z,981.723
2018-08-23T03:46:49.876Z,981.738
2018-08-23T03:48:49.793Z,981.745
2018-08-23T03:50:49.774Z,981.729
2018-08-23T03:52:49.915Z,981.739
2018-08-23T03:54:49.877Z,981.742
2018-08-23T03:56:49.993Z,981.742
2018-08-23T03:58:49.957Z,981.748
2018-08-23T04:00:49.917Z,981.750
2018-08-23T04:02:49.769Z,981.756
2018-08-23T04:04:50.239Z,981.758
2018-08-23T04:06:50.375Z,981.781
2018-08-23T04:08:50.409Z,981.808
2018-08-23T04:10:50.415Z,981.810
2018-08-23T04:12:50.426Z,981.798
2018-08-23T04:14:50.614Z,981.791
2018-08-23T04:16:49.818Z,981.779
2018-08-23T04:18:49.884Z,981.779
2018-08-23T04:20:49.872Z,981.775
2018-08-23T04:22:50.172Z,981.769
2018-08-23T04:24:50.525Z,981.774
2018-08-23T04:26:50.306Z,981.764
2018-08-23T04:28:50.286Z,981.754
2018-08-23T04:30:50.250Z,981.742
2018-08-23T04:32:50.269Z,981.743
2018-08-23T04:34:50.608Z,981.763
2018-08-23T04:36:49.740Z,981.787
2018-08-23T04:38:49.799Z,981.810
2018-08-23T04:40:49.854Z,981.810
2018-08-23T04:42:49.825Z,981.834
2018-08-23T04:44:49.876Z,981.831
2018-08-23T04:46:49.912Z,981.841
2018-08-23T04:48:49.918Z,981.855
2018-08-23T04:50:49.939Z,981.845
2018-08-23T04:52:49.978Z,981.822
2018-08-23T04:54:49.974Z,981.833
2018-08-23T04:56:50.139Z,981.838
2018-08-23T04:58:50.166Z,981.837
2018-08-23T05:00:50.157Z,981.844
2018-08-23T05:02:50.115Z,981.865
2018-08-23T05:04:50.453Z,981.876
2018-08-23T05:06:49.616Z,981.848
2018-08-23T05:08:49.614Z,981.838
2018-08-23T05:10:49.649Z,981.829
2018-08-23T05:12:49.745Z,981.839
2018-08-23T05:14:49.753Z,981.845
2018-08-23T05:16:50.087Z,981.839
2018-08-23T05:18:50.064Z,981.849
2018-08-23T05:20:50.095Z,981.854
2018-08-23T05:22:50.146Z,981.866
2018-08-23T05:24:50.133Z,981.843
2018-08-23T05:26:50.318Z,981.824
2018-08-23T05:28:50.357Z,981.825
2018-08-23T05:30:50.281Z,981.830
2018-08-23T05:32:50.329Z,981.843
2018-08-23T05:34:50.488Z,981.894
2018-08-23T05:36:50.195Z,981.941
2018-08-23T05:38:50.162Z,981.924
2018-08-23T05:40:50.124Z,981.925
2018-08-23T05:42:50.206Z,981.924
2018-08-23T05:44:50.537Z,981.973
2018-08-23T05:46:49.703Z,982.009
2018-08-23T05:48:49.780Z,982.019
2018-08-23T05:50:49.973Z,982.024
2018-08-23T05:52:49.985Z,981.995
2018-08-23T05:54:50.049Z,981.978
2018-08-23T05:56:50.210Z,981.934
2018-08-23T05:58:50.187Z,981.939
2018-08-23T06:00:50.158Z,981.970
2018-08-23T06:02:50.502Z,981.960
2018-08-23T06:04:50.155Z,981.921
2018-08-23T06:06:50.294Z,981.885
2018-08-23T06:08:50.333Z,981.865
2018-08-23T06:10:50.311Z,981.828
2018-08-23T06:12:50.419Z,981.814
2018-08-23T06:14:50.412Z,981.796
2018-08-23T06:16:49.744Z,981.801
2018-08-23T06:18:49.782Z,981.799
2018-08-23T06:20:49.780Z,981.775
2018-08-23T06:22:49.872Z,981.756
2018-08-23T06:24:49.861Z,981.749
2018-08-23T06:26:49.973Z,981.763
2018-08-23T06:28:49.916Z,981.790
2018-08-23T06:30:49.909Z,981.813
2018-08-23T06:32:50.074Z,981.829
2018-08-23T06:34:50.093Z,981.841
2018-08-23T06:36:50.112Z,981.848
2018-08-23T06:38:50.724Z,981.869
2018-08-23T06:40:49.962Z,981.868
2018-08-23T06:42:49.868Z,981.852
2018-08-23T06:44:49.738Z,981.836
2018-08-23T06:46:49.948Z,981.830
2018-08-23T06:48:50.358Z,981.818
2018-08-23T06:50:49.785Z,981.813
2018-08-23T06:52:49.749Z,981.830
2018-08-23T06:54:49.791Z,981.846
2018-08-23T06:56:50.216Z,981.863
2018-08-23T06:58:50.536Z,981.852
2018-08-23T07:00:49.780Z,981.845
2018-08-23T07:02:49.762Z,981.820
2018-08-23T07:04:50.416Z,981.785
2018-08-23T07:06:50.972Z,981.754
2018-08-23T07:08:50.287Z,981.740
2018-08-23T07:10:50.262Z,981.730
2018-08-23T07:12:50.232Z,981.694
2018-08-23T07:14:50.340Z,981.699
2018-08-23T07:16:50.462Z,981.702
2018-08-23T07:18:50.351Z,981.699
2018-08-23T07:20:50.306Z,981.688
2018-08-23T07:22:50.230Z,981.660
2018-08-23T07:24:50.283Z,981.640
2018-08-23T07:26:50.452Z,981.608
2018-08-23T07:28:50.461Z,981.607
2018-08-23T07:30:50.450Z,981.606
2018-08-23T07:32:50.427Z,981.597
2018-08-23T07:34:49.856Z,981.594
2018-08-23T07:36:49.964Z,981.593
2018-08-23T07:38:49.902Z,981.554
2018-08-23T07:40:49.899Z,981.521
2018-08-23T07:42:49.946Z,981.507
2018-08-23T07:44:50.023Z,981.511
2018-08-23T07:46:50.229Z,981.548
2018-08-23T07:48:50.210Z,981.563
2018-08-23T07:50:50.228Z,981.577
2018-08-23T07:52:50.744Z,981.568
2018-08-23T07:54:50.069Z,981.548
2018-08-23T07:56:50.262Z,981.533
2018-08-23T07:58:50.270Z,981.532
2018-08-23T08:00:50.205Z,981.533
2018-08-23T08:02:50.235Z,981.501
2018-08-23T08:04:50.390Z,981.519
2018-08-23T08:06:49.795Z,981.556
2018-08-23T08:08:49.926Z,981.567
2018-08-23T08:10:49.912Z,981.567
2018-08-23T08:12:49.832Z,981.560
2018-08-23T08:14:50.116Z,981.573
2018-08-23T08:16:50.327Z,981.581
2018-08-23T08:18:50.425Z,981.600
2018-08-23T08:20:50.727Z,981.603
2018-08-23T08:22:49.829Z,981.644
2018-08-23T08:24:49.878Z,981.686
2018-08-23T08:26:50.056Z,981.689
2018-08-23T08:28:50.039Z,981.697
2018-08-23T08:30:50.059Z,981.691
2018-08-23T08:32:49.989Z,981.665
2018-08-23T08:34:50.280Z,981.671
2018-08-23T08:36:50.447Z,981.659
2018-08-23T08:38:50.412Z,981.649
2018-08-23T08:40:50.420Z,981.621
2018-08-23T08:42:50.362Z,981.601
2018-08-23T08:44:50.328Z,981.604
2018-08-23T08:46:50.466Z,981.603
2018-08-23T08:48:50.440Z,981.554
2018-08-23T08:50:50.473Z,981.544
2018-08-23T08:52:50.432Z,981.582
2018-08-23T08:54:50.418Z,981.583
2018-08-23T08:56:50.858Z,981.605
2018-08-23T08:58:50.198Z,981.560
2018-08-23T09:00:50.171Z,981.539
2018-08-23T09:02:50.299Z,981.518
2018-08-23T09:04:49.649Z,981.526
2018-08-23T09:06:49.752Z,981.502
2018-08-23T09:08:49.745Z,981.500
2018-08-23T09:10:49.762Z,981.519
2018-08-23T09:12:49.728Z,981.535
2018-08-23T09:14:49.779Z,981.530
2018-08-23T09:16:50.148Z,981.535
2018-08-23T09:18:50.367Z,981.533
2018-08-23T09:20:50.902Z,981.520
2018-08-23T09:22:50.237Z,981.505
2018-08-23T09:24:50.223Z,981.492
2018-08-23T09:26:50.357Z,981.502
2018-08-23T09:28:50.476Z,981.485
2018-08-23T09:30:50.461Z,981.466
2018-08-23T09:32:50.538Z,981.484
2018-08-23T09:34:49.838Z,981.471
2018-08-23T09:36:50.325Z,981.472
2018-08-23T09:38:50.360Z,981.461
2018-08-23T09:40:50.337Z,981.447
2018-08-23T09:42:50.526Z,981.450
2018-08-23T09:44:49.878Z,981.449
2018-08-23T09:46:50.047Z,981.462
2018-08-23T09:48:50.029Z,981.462
2018-08-23T09:50:50.439Z,981.434
2018-08-23T09:52:50.615Z,981.424
2018-08-23T09:54:49.678Z,981.384
2018-08-23T09:56:49.910Z,981.384
2018-08-23T09:58:50.148Z,981.374
2018-08-23T10:00:50.457Z,981.347
2018-08-23T10:02:50.424Z,981.330
2018-08-23T10:04:50.281Z,981.328
2018-08-23T10:06:49.924Z,981.324
2018-08-23T10:08:49.888Z,981.327
2018-08-23T10:10:49.669Z,981.336
2018-08-23T10:12:49.682Z,981.336
2018-08-23T10:14:49.716Z,981.330
2018-08-23T10:16:49.883Z,981.360
2018-08-23T10:18:49.876Z,981.359
2018-08-23T10:20:50.223Z,981.367
2018-08-23T10:22:50.115Z,981.383
2018-08-23T10:24:50.022Z,981.371
2018-08-23T10:26:50.235Z,981.377
2018-08-23T10:28:50.265Z,981.412
2018-08-23T10:30:50.262Z,981.422
2018-08-23T10:32:50.285Z,981.443
2018-08-23T10:34:49.858Z,981.461
2018-08-23T10:36:50.022Z,981.479
2018-08-23T10:38:50.011Z,981.519
2018-08-23T10:40:49.996Z,981.564
2018-08-23T10:42:49.979Z,981.620
2018-08-23T10:44:49.949Z,981.652
2018-08-23T10:46:50.065Z,981.647
2018-08-23T10:48:50.103Z,981.651
2018-08-23T10:50:50.542Z,981.702
2018-08-23T10:52:49.623Z,981.765
2018-08-23T10:54:49.604Z,981.788
2018-08-23T10:56:49.861Z,981.840
2018-08-23T10:58:49.861Z,981.832
2018-08-23T11:00:49.788Z,981.845
2018-08-23T11:02:49.881Z,981.835
2018-08-23T11:04:50.282Z,981.864
2018-08-23T11:06:50.387Z,981.849
2018-08-23T11:08:50.378Z,981.861
2018-08-23T11:10:50.370Z,981.885
2018-08-23T11:12:50.451Z,981.931
2018-08-23T11:14:50.436Z,981.918
2018-08-23T11:16:51.093Z,981.961
2018-08-23T11:18:50.418Z,982.003
2018-08-23T11:20:50.421Z,982.018
2018-08-23T11:22:50.462Z,982.018
2018-08-23T11:24:50.487Z,982.011
2018-08-23T11:26:49.613Z,982.007
2018-08-23T11:28:49.658Z,982.007
2018-08-23T11:30:49.614Z,981.955
2018-08-23T11:32:49.793Z,981.954
2018-08-23T11:34:50.102Z,981.955
2018-08-23T11:36:50.233Z,981.929
2018-08-23T11:38:50.149Z,981.922
2018-08-23T11:40:50.110Z,981.932
2018-08-23T11:42:50.448Z,981.936
2018-08-23T11:44:49.683Z,981.925
2018-08-23T11:46:49.962Z,981.905
2018-08-23T11:48:50.156Z,981.888
2018-08-23T11:50:50.513Z,981.884
2018-08-23T11:52:49.752Z,981.888
2018-08-23T11:54:49.835Z,981.893
2018-08-23T11:56:50.350Z,981.864
2018-08-23T11:58:50.370Z,981.864
2018-08-23T12:00:50.282Z,981.815
2018-08-23T12:02:50.279Z,981.814
2018-08-23T12:04:49.691Z,981.796
2018-08-23T12:06:50.028Z,981.778
2018-08-23T12:08:49.948Z,981.767
2018-08-23T12:10:49.902Z,981.746
2018-08-23T12:12:49.884Z,981.740
2018-08-23T12:14:49.903Z,981.750
2018-08-23T12:16:49.979Z,981.743
2018-08-23T12:18:49.981Z,981.733
2018-08-23T12:20:49.941Z,981.711
2018-08-23T12:22:49.914Z,981.651
2018-08-23T12:24:49.873Z,981.645
2018-08-23T12:26:50.042Z,981.632
2018-08-23T12:28:50.001Z,981.610
2018-08-23T12:30:49.912Z,981.599
2018-08-23T12:32:50.033Z,981.601
2018-08-23T12:34:50.469Z,981.602
2018-08-23T12:36:49.899Z,981.599
2018-08-23T12:38:49.923Z,981.591
2018-08-23T12:40:50.199Z,981.587
2018-08-23T12:42:50.338Z,981.576
2018-08-23T12:44:50.435Z,981.534
2018-08-23T12:46:50.371Z,981.515
2018-08-23T12:48:50.527Z,981.464
2018-08-23T12:50:49.658Z,981.413
2018-08-23T12:52:49.649Z,981.346
2018-08-23T12:54:49.770Z,981.295
2018-08-23T12:56:50.166Z,981.236
2018-08-23T12:58:50.179Z,981.189
2018-08-23T13:00:50.444Z,981.128
2018-08-23T13:02:50.903Z,981.100
2018-08-23T13:04:50.534Z,981.046
2018-08-23T13:06:49.787Z,981.008
2018-08-23T13:08:49.844Z,980.910
2018-08-23T13:10:49.823Z,980.822
2018-08-23T13:12:49.910Z,980.769
2018-08-23T13:14:50.087Z,980.743
2018-08-23T13:16:50.329Z,980.703
2018-08-23T13:18:50.370Z,980.651
2018-08-23T13:20:50.473Z,980.607
2018-08-23T13:22:50.647Z,980.556
2018-08-23T13:24:49.763Z,980.520
2018-08-23T13:26:50.031Z,980.498
2018-08-23T13:28:50.044Z,980.489
2018-08-23T13:30:50.256Z,980.434
2018-08-23T13:32:50.253Z,980.395
2018-08-23T13:34:50.003Z,980.385
2018-08-23T13:36:50.673Z,980.367
2018-08-23T13:38:50.322Z,980.340
2018-08-23T13:40:50.344Z,980.314
2018-08-23T13:42:50.397Z,980.299
2018-08-23T13:44:50.537Z,980.299
2018-08-23T13:46:50.013Z,980.268
2018-08-23T13:48:50.078Z,980.231
2018-08-23T13:50:50.182Z,980.206
2018-08-23T13:52:50.695Z,980.162
2018-08-23T13:54:49.781Z,980.163
2018-08-23T13:56:50.183Z,980.164
2018-08-23T13:58:50.332Z,980.143
2018-08-23T14:00:50.334Z,980.149
2018-08-23T14:02:50.530Z,980.176
2018-08-23T14:04:50.209Z,980.153
2018-08-23T14:06:49.611Z,980.153
2018-08-23T14:08:49.748Z,980.093
2018-08-23T14:10:49.861Z,980.067
2018-08-23T14:12:50.127Z,980.052
2018-08-23T14:14:50.355Z,980.046
2018-08-23T14:16:49.686Z,980.030
2018-08-23T14:18:49.726Z,980.009
2018-08-23T14:20:49.775Z,979.982
2018-08-23T14:22:49.873Z,979.933
2018-08-23T14:24:49.863Z,979.898
2018-08-23T14:26:50.458Z,979.881
2018-08-23T14:28:50.560Z,979.815
2018-08-23T14:30:49.654Z,979.752
2018-08-23T14:32:50.222Z,979.676
2018-08-23T14:34:49.786Z,979.619
2018-08-23T14:36:50.263Z,979.545
2018-08-23T14:38:50.427Z,979.545
2018-08-23T14:40:49.747Z,979.503
2018-08-23T14:42:50.015Z,979.505
2018-08-23T14:44:49.719Z,979.487
2018-08-23T14:46:50.144Z,979.473
2018-08-23T14:48:50.155Z,979.461
2018-08-23T14:50:50.119Z,979.416
2018-08-23T14:52:50.481Z,979.411
2018-08-23T14:54:50.579Z,979.413
2018-08-23T14:56:49.887Z,979.397
2018-08-23T14:58:50.088Z,979.371
2018-08-23T15:00:50.224Z,979.333
2018-08-23T15:02:49.611Z,979.315
2018-08-23T15:04:50.392Z,979.292
2018-08-23T15:06:49.886Z,979.258
2018-08-23T15:08:50.179Z,979.236
2018-08-23T15:10:50.003Z,979.203
2018-08-23T15:12:50.169Z,979.201
2018-08-23T15:14:50.430Z,979.189
2018-08-23T15:16:49.694Z,979.143
2018-08-23T15:18:50.021Z,979.125
2018-08-23T15:20:50.586Z,979.148
2018-08-23T15:22:50.331Z,979.157
2018-08-23T15:24:49.672Z,979.154
2018-08-23T15:26:50.793Z,979.103
2018-08-23T15:28:50.180Z,979.076
2018-08-23T15:30:50.373Z,979.058
2018-08-23T15:32:50.519Z,979.039
2018-08-23T15:34:50.097Z,979.004
2018-08-23T15:36:49.626Z,978.938
2018-08-23T15:38:49.792Z,978.894
2018-08-23T15:40:50.202Z,978.827
2018-08-23T15:42:49.812Z,978.818
2018-08-23T15:44:49.830Z,978.813
2018-08-23T15:46:50.133Z,978.794
2018-08-23T15:48:50.296Z,978.775
2018-08-23T15:50:50.429Z,978.742
2018-08-23T15:52:49.613Z,978.747
2018-08-23T15:54:50.093Z,978.742
2018-08-23T15:56:49.917Z,978.750
2018-08-23T15:58:50.052Z,978.752
2018-08-23T16:00:50.317Z,978.758
2018-08-23T16:02:50.441Z,978.768
2018-08-23T16:04:49.970Z,978.779
2018-08-23T16:06:50.362Z,978.758
2018-08-23T16:08:50.612Z,978.758
2018-08-23T16:10:49.831Z,978.770
2018-08-23T16:12:50.064Z,978.772
2018-08-23T16:14:50.248Z,978.765
2018-08-23T16:16:49.667Z,978.740
2018-08-23T16:18:49.672Z,978.724
2018-08-23T16:20:49.638Z,978.741
2018-08-23T16:22:50.580Z,978.753
2018-08-23T16:24:49.965Z,978.758
2018-08-23T16:26:50.166Z,978.754
2018-08-23T16:28:50.245Z,978.735
2018-08-23T16:30:50.242Z,978.720
2018-08-23T16:32:50.248Z,978.689
2018-08-23T16:34:49.676Z,978.673
2018-08-23T16:36:49.798Z,978.660
2018-08-23T16:38:49.903Z,978.643
2018-08-23T16:40:49.870Z,978.639
2018-08-23T16:42:49.821Z,978.659
2018-08-23T16:44:49.819Z,978.671
2018-08-23T16:46:50.114Z,978.638
2018-08-23T16:48:50.106Z,978.628
2018-08-23T16:50:50.144Z,978.615
2018-08-23T16:52:50.299Z,978.607
2018-08-23T16:54:50.390Z,978.607
2018-08-23T16:56:50.611Z,978.593
2018-08-23T16:58:50.548Z,978.578
2018-08-23T17:00:50.589Z,978.586
2018-08-23T17:02:49.729Z,978.586
2018-08-23T17:04:50.123Z,978.607
2018-08-23T17:06:50.217Z,978.621
2018-08-23T17:08:50.144Z,978.667
2018-08-23T17:10:50.221Z,978.692
2018-08-23T17:12:50.212Z,978.681
2018-08-23T17:14:50.123Z,978.680
2018-08-23T17:16:50.314Z,978.682
2018-08-23T17:18:50.297Z,978.688
2018-08-23T17:20:50.280Z,978.688
2018-08-23T17:22:50.252Z,978.710
2018-08-23T17:24:50.634Z,978.712
2018-08-23T17:26:50.217Z,978.713
2018-08-23T17:28:50.177Z,978.722
2018-08-23T17:30:50.187Z,978.722
2018-08-23T17:32:50.195Z,978.714
2018-08-23T17:34:50.593Z,978.714
2018-08-23T17:36:49.814Z,978.686
2018-08-23T17:38:49.813Z,978.686
2018-08-23T17:40:49.777Z,978.643
2018-08-23T17:42:49.896Z,978.622
2018-08-23T17:44:49.856Z,978.590
2018-08-23T17:46:49.962Z,978.560
2018-08-23T17:48:50.038Z,978.563
2018-08-23T17:50:50.121Z,978.550
2018-08-23T17:52:50.200Z,978.532
2018-08-23T17:54:50.207Z,978.526
2018-08-23T17:56:50.422Z,978.512
2018-08-23T17:58:50.554Z,978.478
2018-08-23T18:00:50.746Z,978.480
2018-08-23T18:02:49.866Z,978.458
2018-08-23T18:04:50.280Z,978.451
2018-08-23T18:06:49.657Z,978.467
2018-08-23T18:08:49.650Z,978.482
2018-08-23T18:10:49.651Z,978.503
2018-08-23T18:12:49.878Z,978.506
2018-08-23T18:14:49.877Z,978.509
2018-08-23T18:16:50.194Z,978.528
2018-08-23T18:18:50.111Z,978.541
2018-08-23T18:20:50.136Z,978.543
2018-08-23T18:22:50.152Z,978.533
2018-08-23T18:24:50.180Z,978.533
2018-08-23T18:26:50.481Z,978.543
2018-08-23T18:28:50.519Z,978.565
2018-08-23T18:30:50.477Z,978.584
2018-08-23T18:32:50.465Z,978.626
2018-08-23T18:34:49.997Z,978.659
2018-08-23T18:36:50.220Z,978.668
2018-08-23T18:38:50.259Z,978.684
2018-08-23T18:40:50.264Z,978.699
2018-08-23T18:42:50.245Z,978.730
2018-08-23T18:44:50.270Z,978.749
2018-08-23T18:46:50.419Z,978.749
2018-08-23T18:48:50.449Z,978.764
2018-08-23T18:50:50.560Z,978.765
2018-08-23T18:52:50.577Z,978.782
2018-08-23T18:54:49.759Z,978.806
2018-08-23T18:56:50.236Z,978.894
2018-08-23T18:58:50.228Z,978.976
2018-08-23T19:00:50.233Z,979.032
2018-08-23T19:02:50.232Z,979.053
2018-08-23T19:04:49.617Z,979.045
2018-08-23T19:06:49.981Z,979.045
2018-08-23T19:08:49.930Z,979.048
2018-08-23T19:10:49.909Z,979.048
2018-08-23T19:12:49.961Z,979.069
2018-08-23T19:14:50.019Z,979.082
2018-08-23T19:16:50.147Z,979.086
2018-08-23T19:18:50.255Z,979.071
2018-08-23T19:20:50.269Z,979.085
2018-08-23T19:22:50.307Z,979.082
2018-08-23T19:24:50.294Z,979.082
2018-08-23T19:28:49.931Z,979.156
2018-08-23T19:30:49.917Z,979.176
2018-08-23T19:32:49.943Z,979.185
2018-08-23T19:34:50.266Z,979.185
2018-08-23T19:36:50.530Z,979.179
2018-08-23T19:38:50.542Z,979.159
2018-08-23T19:40:50.598Z,979.145
2018-08-23T19:42:50.599Z,979.114
2018-08-23T19:44:49.633Z,979.085
2018-08-23T19:46:49.825Z,979.059
2018-08-23T19:48:50.118Z,979.058
2018-08-23T19:50:50.552Z,979.053
2018-08-23T19:52:50.542Z,979.049
2018-08-23T19:54:49.635Z,979.053
2018-08-23T19:56:49.772Z,979.048
2018-08-23T19:58:50.020Z,979.054
2018-08-23T20:00:50.042Z,979.063
2018-08-23T20:02:49.990Z,979.055
2018-08-23T20:04:50.215Z,979.059
2018-08-23T20:06:50.595Z,979.055
2018-08-23T20:08:49.930Z,979.059
2018-08-23T20:10:49.922Z,979.063
2018-08-23T20:12:49.846Z,979.078
2018-08-23T20:14:49.866Z,979.075
2018-08-23T20:16:50.043Z,979.093
2018-08-23T20:18:49.993Z,979.089
2018-08-23T20:20:49.961Z,979.087
2018-08-23T20:22:49.921Z,979.083
2018-08-23T20:24:50.100Z,979.073
2018-08-23T20:26:50.377Z,979.063
2018-08-23T20:28:50.331Z,979.060
2018-08-23T20:30:50.284Z,979.068
2018-08-23T20:32:50.295Z,979.111
2018-08-23T20:34:49.636Z,979.138
2018-08-23T20:36:49.938Z,979.216
2018-08-23T20:38:49.858Z,979.264
2018-08-23T20:40:49.817Z,979.285
2018-08-23T20:42:49.807Z,979.321
2018-08-23T20:44:49.844Z,979.340
2018-08-23T20:46:50.004Z,979.369
2018-08-23T20:48:50.122Z,979.407
2018-08-23T20:50:50.152Z,979.463
2018-08-23T20:52:50.536Z,979.493
2018-08-23T20:54:49.895Z,979.526
2018-08-23T20:56:50.004Z,979.545
2018-08-23T20:58:50.077Z,979.549
2018-08-23T21:00:50.177Z,979.566
2018-08-23T21:02:50.277Z,979.593
2018-08-23T21:04:49.695Z,979.601
2018-08-23T21:06:49.917Z,979.619
2018-08-23T21:08:49.866Z,979.619
2018-08-23T21:10:49.830Z,979.633
2018-08-23T21:12:49.833Z,979.645
2018-08-23T21:14:49.831Z,979.656
2018-08-23T21:16:49.984Z,979.649
2018-08-23T21:18:50.040Z,979.656
2018-08-23T21:20:50.159Z,979.652
2018-08-23T21:22:50.291Z,979.652
2018-08-23T21:24:50.290Z,979.633
2018-08-23T21:26:50.503Z,979.621
2018-08-23T21:28:50.487Z,979.621
2018-08-23T21:30:50.547Z,979.594
2018-08-23T21:32:50.478Z,979.580
2018-08-23T21:34:49.933Z,979.583
2018-08-23T21:36:50.193Z,979.569
2018-08-23T21:38:50.222Z,979.580
2018-08-23T21:40:50.183Z,979.558
2018-08-23T21:42:50.182Z,979.559
2018-08-23T21:44:50.299Z,979.566
2018-08-23T21:46:50.457Z,979.565
2018-08-23T21:48:50.440Z,979.588
2018-08-23T21:50:50.401Z,979.573
2018-08-23T21:52:50.508Z,979.552
2018-08-23T21:54:50.497Z,979.542
2018-08-23T21:56:49.628Z,979.539
2018-08-23T21:58:49.701Z,979.544
2018-08-23T22:00:49.678Z,979.560
2018-08-23T22:02:49.711Z,979.549
2018-08-23T22:04:50.214Z,979.541
2018-08-23T22:06:50.391Z,979.553
2018-08-23T22:08:50.400Z,979.530
2018-08-23T22:10:50.379Z,979.531
2018-08-23T22:12:50.450Z,979.533
2018-08-23T22:14:50.431Z,979.516
2018-08-23T22:16:50.536Z,979.480
2018-08-23T22:18:50.507Z,979.458
2018-08-23T22:20:50.421Z,979.451
2018-08-23T22:22:50.502Z,979.422
2018-08-23T22:24:50.465Z,979.379
2018-08-23T22:26:50.085Z,979.366
2018-08-23T22:28:50.298Z,979.364
2018-08-23T22:30:50.239Z,979.383
2018-08-23T22:32:50.201Z,979.394
2018-08-23T22:34:50.523Z,979.369
2018-08-23T22:36:49.810Z,979.328
2018-08-23T22:38:49.880Z,979.316
2018-08-23T22:40:49.919Z,979.310
2018-08-23T22:42:49.891Z,979.291
2018-08-23T22:44:49.881Z,979.265
2018-08-23T22:46:50.029Z,979.260
2018-08-23T22:48:49.999Z,979.232
2018-08-23T22:50:50.004Z,979.192
2018-08-23T22:52:50.014Z,979.157
2018-08-23T22:54:49.956Z,979.124
2018-08-23T22:56:50.130Z,979.097
2018-08-23T22:58:50.120Z,979.053
2018-08-23T23:00:50.152Z,979.016
2018-08-23T23:02:50.154Z,979.007
2018-08-23T23:04:50.520Z,979.000
2018-08-23T23:06:49.764Z,979.021
2018-08-23T23:08:49.770Z,979.041
2018-08-23T23:10:49.769Z,978.991
2018-08-23T23:12:49.776Z,978.930
2018-08-23T23:14:49.822Z,978.907
2018-08-23T23:16:50.102Z,978.919
2018-08-23T23:18:50.111Z,978.933
2018-08-23T23:20:50.156Z,978.914
2018-08-23T23:22:50.233Z,978.905
2018-08-23T23:24:50.261Z,978.881
2018-08-23T23:26:50.262Z,978.862
2018-08-23T23:28:50.291Z,978.876
2018-08-23T23:30:50.291Z,978.901
2018-08-23T23:32:50.295Z,978.899
2018-08-23T23:34:49.765Z,978.879
2018-08-23T23:36:50.013Z,978.866
2018-08-23T23:38:50.037Z,978.843
2018-08-23T23:40:50.056Z,978.859
2018-08-23T23:42:49.980Z,978.898
2018-08-23T23:44:50.095Z,978.931
2018-08-23T23:46:50.338Z,978.966
2018-08-23T23:48:50.249Z,978.980
2018-08-23T23:50:50.242Z,978.983
2018-08-23T23:52:50.220Z,978.983
2018-08-23T23:54:50.157Z,979.146
2018-08-23T23:56:50.527Z,979.213
2018-08-23T23:58:50.496Z,979.152
